createdAt,value
2022-09-04T00:01:19.901Z,0.30
2022-09-04T00:03:56.189Z,0.40
2022-09-04T00:06:35.393Z,0.20
2022-09-04T00:09:12.275Z,0.20
2022-09-04T00:12:05.872Z,0.30
2022-09-04T00:14:50.414Z,0.30
2022-09-04T00:17:37.597Z,0.22
2022-09-04T00:20:25.662Z,0.10
2022-09-04T00:23:18.493Z,0.20
2022-09-04T00:25:50.656Z,0.30
2022-09-04T00:28:27.057Z,0.28
2022-09-04T00:31:34.185Z,0.20
2022-09-04T00:34:13.981Z,0.40
2022-09-04T00:36:50.209Z,0.30
2022-09-04T00:39:36.269Z,0.30
2022-09-04T00:42:31.589Z,0.17
2022-09-04T00:45:34.019Z,0.30
2022-09-04T00:48:47.799Z,0.30
2022-09-04T00:51:40.533Z,0.20
2022-09-04T00:54:39.086Z,0.30
2022-09-04T00:58:10.272Z,0.30
2022-09-04T01:00:39.294Z,0.20
2022-09-04T01:03:24.066Z,0.30
2022-09-04T01:06:09.439Z,0.20
2022-09-04T01:08:46.778Z,0.20
2022-09-04T01:11:45.418Z,0.28
2022-09-04T01:14:40.325Z,0.30
2022-09-04T01:17:41.187Z,0.30
2022-09-04T01:20:51.510Z,0.22
2022-09-04T01:23:53.107Z,0.30
2022-09-04T01:26:48.257Z,0.30
2022-09-04T01:29:21.576Z,0.20
2022-09-04T01:32:29.854Z,0.25
2022-09-04T01:35:15.396Z,0.20
2022-09-04T01:38:24.974Z,0.10
2022-09-04T01:41:22.656Z,0.10
2022-09-04T01:43:52.097Z,0.10
2022-09-04T01:47:11.078Z,0.00
2022-09-04T01:49:47.717Z,0.10
2022-09-04T01:52:48.712Z,0.40
2022-09-04T01:55:30.957Z,0.10
2022-09-04T01:58:17.665Z,0.13
2022-09-04T02:01:12.266Z,0.03
2022-09-04T02:04:12.166Z,2.20
2022-09-04T02:07:33.333Z,0.10
2022-09-04T02:10:43.113Z,0.10
2022-09-04T02:13:36.008Z,0.10
2022-09-04T02:16:31.186Z,0.10
2022-09-04T02:19:47.806Z,0.10
2022-09-04T02:22:53.091Z,0.00
2022-09-04T02:25:31.920Z,0.43
2022-09-04T02:28:37.418Z,0.10
2022-09-04T02:31:29.766Z,0.10
2022-09-04T02:34:29.817Z,0.13
2022-09-04T02:37:30.779Z,0.10
2022-09-04T02:40:12.098Z,0.10
2022-09-04T02:42:52.936Z,0.10
2022-09-04T02:45:39.967Z,0.10
2022-09-04T02:48:35.266Z,0.10
2022-09-04T02:51:21.424Z,0.10
2022-09-04T02:54:01.621Z,0.20
2022-09-04T02:57:24.489Z,0.10
2022-09-04T03:00:15.425Z,0.00
2022-09-04T03:03:18.964Z,0.10
2022-09-04T03:06:04.749Z,0.10
2022-09-04T03:08:53.403Z,0.10
2022-09-04T03:11:55.757Z,0.10
2022-09-04T03:14:36.946Z,0.10
2022-09-04T03:17:39.838Z,0.10
2022-09-04T03:20:24.217Z,0.10
2022-09-04T03:23:20.797Z,0.10
2022-09-04T03:26:22.803Z,0.00
2022-09-04T03:29:15.076Z,0.10
2022-09-04T03:32:16.416Z,0.00
2022-09-04T03:35:15.555Z,0.10
2022-09-04T03:38:03.677Z,0.10
2022-09-04T03:40:39.486Z,0.10
2022-09-04T03:43:33.324Z,0.10
2022-09-04T03:46:06.858Z,0.10
2022-09-04T03:49:21.313Z,0.10
2022-09-04T03:52:28.145Z,0.10
2022-09-04T03:55:31.270Z,0.20
2022-09-04T03:58:41.089Z,0.10
2022-09-04T04:01:46.570Z,0.10
2022-09-04T04:05:00.490Z,0.10
2022-09-04T04:08:03.389Z,0.10
2022-09-04T04:10:45.424Z,0.00
2022-09-04T04:13:16.532Z,0.10
2022-09-04T04:16:08.579Z,0.35
2022-09-04T04:18:53.536Z,0.10
2022-09-04T04:21:40.648Z,0.10
2022-09-04T04:24:55.791Z,0.10
2022-09-04T04:28:05.353Z,0.10
2022-09-04T04:30:54.686Z,0.20
2022-09-04T04:33:46.373Z,0.10
2022-09-04T04:36:55.532Z,0.10
2022-09-04T04:39:50.716Z,0.00
2022-09-04T04:42:28.381Z,0.00
2022-09-04T04:45:21.042Z,0.10
2022-09-04T04:48:15.681Z,0.10
2022-09-04T04:51:03.872Z,0.10
2022-09-04T04:53:47.073Z,0.10
2022-09-04T04:56:23.425Z,0.10
2022-09-04T04:59:03.608Z,0.10
2022-09-04T05:02:03.688Z,0.10
2022-09-04T05:04:48.628Z,0.10
2022-09-04T05:07:37.304Z,0.10
2022-09-04T05:11:09.642Z,0.10
2022-09-04T05:14:18.255Z,0.10
2022-09-04T05:16:52.184Z,0.10
2022-09-04T05:19:41.956Z,0.00
2022-09-04T05:22:21.138Z,0.10
2022-09-04T05:24:49.417Z,0.10
2022-09-04T05:27:33.607Z,0.10
2022-09-04T05:30:18.373Z,0.10
2022-09-04T05:33:01.217Z,0.10
2022-09-04T05:35:47.501Z,0.10
2022-09-04T05:38:38.631Z,0.10
2022-09-04T05:41:26.117Z,0.10
2022-09-04T05:44:00.921Z,0.10
2022-09-04T05:47:10.191Z,0.10
2022-09-04T05:49:47.368Z,0.10
2022-09-04T05:52:40.031Z,0.10
2022-09-04T05:55:48.652Z,0.10
2022-09-04T05:59:11.832Z,0.10
2022-09-04T06:02:01.948Z,0.10
2022-09-04T06:05:06.851Z,0.00
2022-09-04T06:08:06.027Z,0.10
2022-09-04T06:10:43.276Z,0.10
2022-09-04T06:13:14.626Z,0.10
2022-09-04T06:16:32.818Z,0.10
2022-09-04T06:19:27.440Z,0.10
2022-09-04T06:22:04.701Z,0.10
2022-09-04T06:25:10.691Z,0.10
2022-09-04T06:27:57.836Z,0.10
2022-09-04T06:30:38.529Z,0.10
2022-09-04T06:33:23.829Z,0.10
2022-09-04T06:36:30.566Z,0.10
2022-09-04T06:39:45.657Z,0.00
2022-09-04T06:42:28.417Z,0.00
2022-09-04T06:45:33.377Z,0.10
2022-09-04T06:48:47.308Z,0.10
2022-09-04T06:51:56.618Z,0.10
2022-09-04T06:55:02.833Z,0.00
2022-09-04T06:57:35.705Z,0.00
2022-09-04T07:00:13.046Z,0.10
2022-09-04T07:03:52.239Z,0.10
2022-09-04T07:06:56.308Z,0.10
2022-09-04T07:09:42.136Z,0.00
2022-09-04T07:12:48.364Z,0.10
2022-09-04T07:15:57.174Z,0.10
2022-09-04T07:18:37.086Z,0.10
2022-09-04T07:22:00.717Z,0.10
2022-09-04T07:24:44.349Z,0.10
2022-09-04T07:27:34.917Z,0.00
2022-09-04T07:30:07.706Z,0.10
2022-09-04T07:33:27.308Z,0.00
2022-09-04T07:36:08.446Z,0.00
2022-09-04T07:39:11.320Z,0.00
2022-09-04T07:42:20.509Z,0.10
2022-09-04T07:45:16.613Z,0.10
2022-09-04T07:47:55.249Z,0.00
2022-09-04T07:50:32.273Z,0.10
2022-09-04T07:53:15.297Z,0.10
2022-09-04T07:55:48.677Z,0.10
2022-09-04T07:58:50.237Z,0.00
2022-09-04T08:01:23.406Z,0.10
2022-09-04T08:04:22.972Z,0.00
2022-09-04T08:06:59.745Z,0.00
2022-09-04T08:10:17.738Z,0.00
2022-09-04T08:13:43.209Z,0.00
2022-09-04T08:16:44.011Z,0.00
2022-09-04T08:19:48.831Z,0.00
2022-09-04T08:23:17.971Z,0.00
2022-09-04T08:26:14.544Z,0.13
2022-09-04T08:29:03.311Z,0.00
2022-09-04T08:31:42.367Z,0.00
2022-09-04T08:34:48.531Z,0.38
2022-09-04T08:37:33.654Z,0.00
2022-09-04T08:40:42.951Z,0.10
2022-09-04T08:43:11.269Z,0.00
2022-09-04T08:45:51.848Z,0.00
2022-09-04T08:48:35.661Z,0.13
2022-09-04T08:51:14.410Z,0.20
2022-09-04T08:54:10.022Z,0.15
2022-09-04T08:57:11.011Z,0.10
2022-09-04T09:00:18.690Z,0.00
2022-09-04T09:03:34.389Z,0.00
2022-09-04T09:06:59.047Z,0.00
2022-09-04T09:09:55.038Z,0.03
2022-09-04T09:13:11.816Z,0.00
2022-09-04T09:16:15.119Z,0.00
2022-09-04T09:19:12.219Z,0.00
2022-09-04T09:22:00.668Z,0.10
2022-09-04T09:25:21.368Z,0.10
2022-09-04T09:28:32.635Z,0.00
2022-09-04T09:31:50.247Z,0.10
2022-09-04T09:35:23.377Z,0.00
2022-09-04T09:38:16.213Z,0.10
2022-09-04T09:41:14.300Z,0.03
2022-09-04T09:44:19.650Z,0.00
2022-09-04T09:47:12.965Z,0.00
2022-09-04T09:50:18.004Z,0.00
2022-09-04T09:53:26.074Z,0.10
2022-09-04T09:56:07.608Z,0.43
2022-09-04T09:59:03.345Z,0.00
2022-09-04T10:01:46.735Z,0.00
2022-09-04T10:05:07.605Z,0.00
2022-09-04T10:08:36.157Z,0.10
2022-09-04T10:11:23.822Z,0.20
2022-09-04T10:14:23.162Z,0.20
2022-09-04T10:17:14.947Z,0.28
2022-09-04T10:20:08.736Z,0.20
2022-09-04T10:23:15.075Z,0.32
2022-09-04T10:26:16.182Z,0.40
2022-09-04T10:29:44.608Z,0.47
2022-09-04T10:32:34.417Z,0.40
2022-09-04T10:35:50.037Z,0.30
2022-09-04T10:38:35.209Z,0.40
2022-09-04T10:41:20.945Z,0.30
2022-09-04T10:44:18.006Z,0.73
2022-09-04T10:47:28.797Z,0.40
2022-09-04T10:50:12.805Z,0.88
2022-09-04T10:53:14.779Z,0.77
2022-09-04T10:55:54.341Z,0.43
2022-09-04T10:58:48.469Z,1.27
2022-09-04T11:01:57.742Z,1.20
2022-09-04T11:04:47.826Z,0.90
2022-09-04T11:07:35.993Z,0.57
2022-09-04T11:10:04.394Z,0.70
2022-09-04T11:12:51.479Z,0.98
2022-09-04T11:15:58.207Z,0.70
2022-09-04T11:18:59.652Z,0.80
2022-09-04T11:22:12.756Z,1.45
2022-09-04T11:24:49.068Z,2.15
2022-09-04T11:27:44.477Z,1.83
2022-09-04T11:31:05.542Z,1.65
2022-09-04T11:34:33.300Z,1.05
2022-09-04T11:37:33.641Z,0.52
2022-09-04T11:40:22.827Z,0.80
2022-09-04T11:43:49.422Z,0.98
2022-09-04T11:47:01.719Z,1.80
2022-09-04T11:49:50.828Z,1.10
2022-09-04T11:52:42.411Z,1.20
2022-09-04T11:55:16.997Z,1.05
2022-09-04T11:57:48.114Z,1.00
2022-09-04T12:00:18.374Z,1.00
2022-09-04T12:03:17.818Z,0.52
2022-09-04T12:06:07.525Z,0.70
2022-09-04T12:08:35.931Z,0.50
2022-09-04T12:11:50.888Z,0.50
2022-09-04T12:15:03.797Z,0.50
2022-09-04T12:17:50.138Z,0.60
2022-09-04T12:21:04.838Z,0.60
2022-09-04T12:24:10.521Z,0.60
2022-09-04T12:26:58.119Z,0.80
2022-09-04T12:30:11.925Z,0.88
2022-09-04T12:32:52.216Z,1.70
2022-09-04T12:35:51.617Z,0.40
2022-09-04T12:38:38.611Z,0.38
2022-09-04T12:41:24.101Z,0.25
2022-09-04T12:44:27.257Z,0.88
2022-09-04T12:47:07.547Z,0.40
2022-09-04T12:50:07.073Z,0.50
2022-09-04T12:52:44.377Z,0.47
2022-09-04T12:55:39.013Z,0.40
2022-09-04T12:58:33.904Z,0.50
2022-09-04T13:01:15.478Z,0.73
2022-09-04T13:04:22.562Z,0.63
2022-09-04T13:07:33.900Z,0.40
2022-09-04T13:10:37.475Z,0.43
2022-09-04T13:13:17.735Z,0.40
2022-09-04T13:16:15.977Z,0.63
2022-09-04T13:18:50.016Z,0.63
2022-09-04T13:22:33.980Z,0.85
2022-09-04T13:25:27.356Z,0.52
2022-09-04T13:28:25.488Z,0.60
2022-09-04T13:31:36.416Z,0.70
2022-09-04T13:34:12.479Z,0.40
2022-09-04T13:37:45.532Z,0.40
2022-09-04T13:40:16.921Z,0.45
2022-09-04T13:43:10.069Z,0.50
2022-09-04T13:45:50.138Z,0.40
2022-09-04T13:48:41.399Z,0.30
2022-09-04T13:51:31.070Z,0.57
2022-09-04T13:54:20.749Z,1.25
2022-09-04T13:57:05.590Z,0.30
2022-09-04T13:59:34.375Z,0.50
2022-09-04T14:02:12.593Z,0.50
2022-09-04T14:04:55.545Z,0.50
2022-09-04T14:07:36.206Z,0.60
2022-09-04T14:10:23.183Z,0.85
2022-09-04T14:13:37.313Z,0.52
2022-09-04T14:16:09.137Z,0.50
2022-09-04T14:19:00.177Z,0.60
2022-09-04T14:22:06.726Z,0.50
2022-09-04T14:24:38.452Z,0.50
2022-09-04T14:27:33.964Z,0.80
2022-09-04T14:30:22.434Z,0.50
2022-09-04T14:33:19.031Z,0.20
2022-09-04T14:36:27.319Z,0.40
2022-09-04T14:39:03.742Z,0.20
2022-09-04T14:41:35.991Z,0.30
2022-09-04T14:44:39.275Z,0.47
2022-09-04T14:47:11.882Z,0.40
2022-09-04T14:49:47.459Z,0.40
2022-09-04T14:52:21.726Z,0.32
2022-09-04T14:54:59.954Z,0.50
2022-09-04T14:57:40.286Z,0.20
2022-09-04T15:00:18.591Z,0.30
2022-09-04T15:03:22.846Z,0.40
2022-09-04T15:06:07.417Z,0.20
2022-09-04T15:08:40.848Z,0.20
2022-09-04T15:11:31.106Z,0.30
2022-09-04T15:14:33.067Z,0.38
2022-09-04T15:17:08.775Z,0.40
2022-09-04T15:19:56.196Z,0.50
2022-09-04T15:22:24.958Z,0.40
2022-09-04T15:24:57.286Z,0.40
2022-09-04T15:28:00.321Z,0.40
2022-09-04T15:30:42.545Z,0.45
2022-09-04T15:33:18.909Z,0.38
2022-09-04T15:36:05.197Z,0.28
2022-09-04T15:38:35.717Z,0.40
2022-09-04T15:41:50.156Z,0.40
2022-09-04T15:44:35.694Z,0.20
2022-09-04T15:47:44.764Z,0.10
2022-09-04T15:50:28.200Z,0.40
2022-09-04T15:53:30.256Z,1.38
2022-09-04T15:56:29.529Z,0.40
2022-09-04T15:59:26.085Z,0.30
2022-09-04T16:02:36.583Z,0.40
2022-09-04T16:05:41.480Z,0.40
2022-09-04T16:08:20.583Z,0.22
2022-09-04T16:11:11.734Z,0.40
2022-09-04T16:13:50.452Z,0.32
2022-09-04T16:16:53.149Z,0.43
2022-09-04T16:19:32.300Z,0.40
2022-09-04T16:22:19.559Z,0.65
2022-09-04T16:24:54.278Z,0.30
2022-09-04T16:27:28.079Z,0.40
2022-09-04T16:30:05.917Z,0.65
2022-09-04T16:32:35.431Z,0.65
2022-09-04T16:35:19.446Z,0.30
2022-09-04T16:37:59.164Z,0.20
2022-09-04T16:40:35.034Z,0.40
2022-09-04T16:43:03.191Z,0.40
2022-09-04T16:45:41.445Z,0.30
2022-09-04T16:48:53.224Z,0.40
2022-09-04T16:51:41.234Z,0.40
2022-09-04T16:54:37.267Z,0.50
2022-09-04T16:57:18.566Z,0.60
2022-09-04T16:59:58.770Z,0.50
2022-09-04T17:02:48.967Z,0.30
2022-09-04T17:05:46.218Z,0.65
2022-09-04T17:08:38.483Z,0.40
2022-09-04T17:11:29.698Z,0.35
2022-09-04T17:14:20.360Z,0.40
2022-09-04T17:17:03.362Z,0.40
2022-09-04T17:20:10.560Z,0.20
2022-09-04T17:29:01.179Z,0.20
2022-09-04T17:29:03.380Z,0.55
2022-09-04T17:29:10.934Z,0.30
2022-09-04T17:31:38.497Z,0.10
2022-09-04T17:40:32.329Z,0.20
2022-09-04T17:40:55.091Z,0.10
2022-09-04T17:41:35.876Z,0.10
2022-09-04T17:45:01.197Z,0.00
2022-09-04T17:47:42.954Z,0.10
2022-09-04T17:50:18.274Z,0.10
2022-09-04T17:53:01.659Z,0.00
2022-09-04T17:55:39.043Z,0.00
2022-09-04T17:58:54.657Z,0.00
2022-09-04T18:01:33.693Z,0.00
2022-09-04T18:04:26.572Z,0.00
2022-09-04T18:07:21.877Z,0.00
2022-09-04T18:10:25.474Z,0.10
2022-09-04T18:13:37.748Z,0.00
2022-09-04T18:16:13.059Z,0.10
2022-09-04T18:18:50.925Z,0.10
2022-09-04T18:22:25.123Z,0.20
2022-09-04T18:25:42.608Z,0.10
2022-09-04T18:28:25.610Z,0.03
2022-09-04T18:37:10.471Z,0.10
2022-09-04T18:37:24.342Z,0.10
2022-09-04T18:37:45.724Z,0.10
2022-09-04T18:40:50.357Z,0.17
2022-09-04T18:50:29.725Z,0.13
2022-09-04T18:50:35.599Z,0.08
2022-09-04T18:51:03.173Z,0.10
2022-09-04T18:52:29.932Z,0.32
2022-09-04T18:55:09.014Z,0.10
2022-09-04T18:58:11.966Z,0.17
2022-09-04T19:00:56.659Z,0.10
2022-09-04T19:03:26.266Z,0.20
2022-09-04T19:06:09.699Z,0.20
2022-09-04T19:08:45.705Z,0.40
2022-09-04T19:11:26.949Z,0.35
2022-09-04T19:14:11.073Z,0.40
2022-09-04T19:16:55.533Z,0.35
2022-09-04T19:19:34.193Z,0.20
2022-09-04T19:22:28.802Z,0.22
2022-09-04T19:25:04.723Z,0.20
2022-09-04T19:28:10.695Z,0.50
2022-09-04T19:31:05.241Z,0.43
2022-09-04T19:33:47.539Z,0.30
2022-09-04T19:36:54.478Z,0.30
2022-09-04T19:46:07.641Z,0.13
2022-09-04T19:46:07.786Z,0.20
2022-09-04T19:46:15.288Z,0.30
2022-09-04T19:51:59.552Z,0.47
2022-09-04T19:53:33.252Z,0.32
2022-09-04T19:55:59.626Z,0.30
2022-09-04T19:58:46.388Z,0.10
2022-09-04T20:01:17.854Z,0.20
2022-09-04T20:04:24.055Z,0.35
2022-09-04T20:07:02.738Z,0.40
2022-09-04T20:09:42.395Z,0.20
2022-09-04T20:12:26.157Z,0.10
2022-09-04T20:15:28.335Z,0.20
2022-09-04T20:18:13.051Z,0.40
2022-09-04T20:21:08.693Z,0.40
2022-09-04T20:23:59.613Z,0.30
2022-09-04T20:26:45.930Z,0.32
2022-09-04T20:29:33.548Z,0.20
2022-09-04T20:32:22.511Z,0.13
2022-09-04T20:35:16.296Z,0.10
2022-09-04T20:37:53.864Z,0.13
2022-09-04T20:40:37.794Z,0.10
2022-09-04T20:43:51.790Z,0.10
2022-09-04T20:52:38.945Z,0.10
2022-09-04T20:52:49.857Z,0.10
2022-09-04T20:53:24.241Z,0.20
2022-09-04T20:56:50.688Z,0.20
2022-09-04T21:03:09.146Z,0.10
2022-09-04T21:03:12.165Z,0.10
2022-09-04T21:06:13.183Z,0.20
2022-09-04T21:09:00.306Z,0.90
2022-09-04T21:11:47.545Z,0.10
2022-09-04T21:14:45.902Z,0.10
2022-09-04T21:18:04.004Z,0.10
2022-09-04T21:21:10.656Z,0.15
2022-09-04T21:24:24.476Z,0.20
2022-09-04T21:27:23.686Z,0.10
2022-09-04T21:30:15.504Z,0.10
2022-09-04T21:33:27.188Z,0.00
2022-09-04T21:36:25.829Z,0.00
2022-09-04T21:39:49.603Z,0.10
2022-09-04T21:43:09.078Z,0.10
2022-09-04T21:45:51.965Z,0.10
2022-09-04T21:49:08.998Z,0.10
2022-09-04T21:52:00.792Z,0.10
2022-09-04T21:58:10.139Z,0.10
2022-09-04T22:02:30.166Z,0.10
2022-09-04T22:02:40.620Z,0.10
2022-09-04T22:04:50.327Z,0.10
2022-09-04T22:10:52.871Z,0.00
2022-09-04T22:13:38.858Z,0.10
2022-09-04T22:14:14.093Z,0.10
2022-09-04T22:17:13.778Z,0.10
2022-09-04T22:20:34.886Z,0.10
2022-09-04T22:24:14.793Z,0.10
2022-09-04T22:26:48.350Z,0.00
2022-09-04T22:30:05.205Z,0.10
2022-09-04T22:33:03.429Z,0.10
2022-09-04T22:36:04.588Z,0.00
2022-09-04T22:38:57.021Z,0.10
2022-09-04T22:42:05.569Z,0.00
2022-09-04T22:45:17.320Z,0.10
2022-09-04T22:48:21.413Z,0.00
2022-09-04T22:51:51.706Z,0.10
2022-09-04T22:54:31.193Z,0.10
2022-09-04T22:57:10.361Z,0.10
2022-09-04T23:00:12.296Z,0.20
2022-09-04T23:03:24.029Z,0.20
2022-09-04T23:07:44.334Z,0.63
2022-09-04T23:13:42.710Z,0.20
2022-09-04T23:13:59.986Z,0.20
2022-09-04T23:16:14.474Z,0.10
2022-09-04T23:21:36.045Z,0.10
2022-09-04T23:26:51.088Z,0.10
2022-09-04T23:26:51.090Z,0.10
2022-09-04T23:28:28.058Z,0.10
2022-09-04T23:31:37.574Z,0.10
2022-09-04T23:34:44.054Z,0.10
2022-09-04T23:37:27.858Z,0.10
2022-09-04T23:40:44.411Z,0.10
2022-09-04T23:43:36.350Z,1.75
2022-09-04T23:46:34.637Z,0.10
2022-09-04T23:49:13.079Z,0.10
2022-09-04T23:51:59.506Z,0.10
2022-09-04T23:55:04.889Z,0.20
2022-09-04T23:57:39.620Z,0.10
